Tiempo atmosférico en la estación meteorológica de Villaeles De Valdavia, Palencia (908 m.)



Fecha
DESCASC
Temp. máxima en grados centígrados (hora)
DESCASC
Temp. mínima en grados centígrados (hora)
DESCASC
Temp. media en grados centígrados
DESCASC
Racha de viento máxima en m/sg (hora)
DESCASC
Velocidad máxima media en intervalos de 10 minutos(hora)
DESCASC
Precipitaciones diarias en mm
DESCASC
Precipitaciones de 00:00 a 06:00 en mm
DESCASC
Precipitaciones de 06:00 a 12:00 en mm
DESCASC
Precipitaciones de 12:00 a 18:00 en mm
DESCASC
Precipitaciones de 18:00 a 24:00 en mm
DESCASC
25-02-2021 12.1 (15:00) 1.3 (08:20) 6.7 8.33 (20:50) 5.28 (20:50) 0 0 0 0 0
24-02-2021 14.7 (16:30) -2.6 (08:10) 6 10.83 (15:10) 7.5 (16:50) 0 0 0 0 0
23-02-2021 11.9 (17:10) -3.6 (08:10) 4.1 7.5 (16:00) 5.28 (14:20) 0 0 0 0 0
22-02-2021 9.9 (16:30) -1.2 (23:50) 4.3 7.22 (15:50) 4.44 (18:00) 3.2 3.2 0 0 0
21-02-2021 8.8 (13:40) 2.6 (00:00) 5.7 8.61 (16:50) 4.44 (16:50) 8.8 0 0 0.8 8
20-02-2021 11.3 (16:30) 3.7 (00:00) 7.5 13.33 (12:40) 10.28 (12:30) 0 0 0 0 0
19-02-2021 12.5 (15:00) 5.5 (00:00) 9 14.17 (13:40) 9.72 (15:40) 2.2 1.8 0.4 0 0
18-02-2021 10.4 (15:50) 5.5 (00:00) 7.9 18.06 (14:40) 11.39 (16:40) 1.4 0.2 0 0.2 1
17-02-2021 10.7 (15:00) 4.9 (00:00) 7.8 12.22 (14:50) 8.06 (14:50) 0 0 0 0 0
16-02-2021 10.3 (12:10) -1.6 (-00:0) 4.4 17.22 (12:40) 10 (12:40) 1.2 0 0 1.2 0
15-02-2021 15.1 (15:50) -0.5 (-00:0) 7.3 6.11 (16:10) 4.17 (17:40) 0 0 0 0 0
14-02-2021 10.8 (15:20) -1.4 (-00:0) 4.7 5.28 (14:40) 3.61 (14:40) 0 0 0 0 0
13-02-2021 12.8 (16:40) -0.2 (00:00) 6.3 7.22 (14:50) 4.72 (17:00) 0 0 0 0 0
12-02-2021 12.2 (15:10) 0.9 (00:00) 6.5 13.89 (02:20) 10.28 (02:20) 3.8 3.4 0.4 0 0
11-02-2021 11 (17:00) 1.8 (00:00) 6.4 10.28 (22:40) 6.67 (23:59) 0 0 0 0 0
10-02-2021 9 (15:40) 0.5 (00:00) 4.8 14.17 (04:50) 9.44 (03:20) 2.6 2.6 0 0 0
09-02-2021 5.3 (11:20) 2.2 (00:00) 3.8 20.28 (10:40) 12.78 (11:50) 13.8 2 9.4 2.2 0.2
08-02-2021 7.2 (14:10) 1.8 (00:00) 4.5 12.22 (14:50) 8.33 (14:50) 6.6 6 0 0.6 0
07-02-2021 4.4 (14:20) -2.3 (-00:0) 1.1 11.67 (20:40) 6.94 (21:50) 1 0 0 0 1
06-02-2021 6.8 (00:00) 1.9 (00:00) 4.4 9.44 (01:00) 5.28 (01:00) 8.4 2.6 5.6 0.2 0
05-02-2021 10 (15:30) 3.4 (00:00) 6.7 11.94 (20:20) 7.78 (21:40) 5 1.2 3.6 0 0.2
04-02-2021 6.6 (11:40) 2.4 (00:00) 4.5 7.78 (01:40) 5.28 (00:20) 12.4 0 0.2 11.8 0.4
03-02-2021 11.1 (15:00) 6.2 (00:00) 8.7 16.39 (06:40) 10.83 (12:20) 3.6 2.4 1.2 0 0
02-02-2021 9.4 (12:10) 7.4 (08:50) 8.4 14.72 (19:40) 9.72 (22:40) 1.6 0 0 0.6 1
01-02-2021 13 (14:00) 5.5 (00:00) 9.3 19.17 (01:10) 13.33 (00:20) 0 0 0 0 0
31-01-2021 13.3 (15:10) 1.5 (00:00) 7.4 18.61 (16:30) 13.33 (23:59) 0 0 0 0 0
30-01-2021 8.6 (00:00) 2.9 (00:00) 5.8 20.28 (14:40) 13.06 (13:30) 4.2 4.2 0 0 0
29-01-2021 12.6 (16:20) 7.1 (00:00) 9.9 11.39 (23:50) 8.33 (23:50) 0 0 0 0 0
28-01-2021 11.8 (17:50) 7.5 (00:00) 9.7 9.44 (19:40) 6.94 (19:00) 0 0 0 0 0

Gráficas

Temp. máximas Temp. mínimas Temp. medias Precipitaciones Rachas de viento máximas Velocidades máximas media en intervalos de 10 minutos

Datos horarios

Fecha y hora oficial Temperatura (ºC) Velocidad del viento (km/h) Dirección del viento Racha (km/h) Dirección de racha Precipitación (mm) Presión (hPa) Tendencia (hPa) Humedad (%)
2021-02-26 23:00:00 5.5 6 Norte 14 Norte 0 -- -- 90
2021-02-26 22:00:00 5.8 2 Norte 15 Nordeste 0 -- -- 89
2021-02-26 21:00:00 6.2 3 Nordeste 12 Nordeste 0 -- -- 87
2021-02-26 20:00:00 7.2 5 Norte 31 Nordeste 0 -- -- 84
2021-02-26 19:00:00 8.5 17 Nordeste 28 Nordeste 0 -- -- 81
2021-02-26 18:00:00 10.2 16 Nordeste 30 Nordeste 0 -- -- 74
2021-02-26 17:00:00 11.5 19 Nordeste 39 Este 0 -- -- 68
2021-02-26 16:00:00 12.1 18 Este 33 Nordeste 0 -- -- 64
2021-02-26 15:00:00 11.5 21 Nordeste 35 Este 0 -- -- 70
2021-02-26 14:00:00 10.9 20 Nordeste 36 Nordeste 0 -- -- 74
2021-02-26 13:00:00 10.1 18 Nordeste 36 Este 0 -- -- 77
2021-02-26 12:00:00 9 21 Nordeste 35 Este 0 -- -- 79
2021-02-26 11:00:00 8 20 Nordeste 42 Este 0 -- -- 83
2021-02-26 10:00:00 7 22 Este 38 Este 0 -- -- 87
2021-02-26 09:00:00 5.8 4 Norte 28 Nordeste 0 -- -- 91
2021-02-26 08:00:00 5.8 16 Nordeste 28 Nordeste 0 -- -- 92
2021-02-26 07:00:00 5.8 13 Nordeste 31 Nordeste 0 -- -- 93
2021-02-26 06:00:00 6.2 19 Nordeste 38 Este 0 -- -- 93
2021-02-26 05:00:00 6.1 20 Nordeste 31 Este 0 -- -- 93
2021-02-26 04:00:00 6.3 20 Nordeste 33 Nordeste 0 -- -- 90
2021-02-26 03:00:00 6.3 20 Nordeste 35 Nordeste 0 -- -- 91
2021-02-26 02:00:00 6.3 18 Nordeste 33 Nordeste 0 -- -- 92
2021-02-26 01:00:00 6.6 17 Nordeste 32 Este 0 -- -- 90
2021-02-26 00:00:00 6.6 16 Nordeste 28 Este 0 -- -- 89
2021-02-25 23:00:00 6.3 5 Norte 18 Nordeste 0 -- -- 89
2021-02-25 22:00:00 6.5 11 Nordeste 28 Nordeste 0 -- -- 88
2021-02-25 21:00:00 7 15 Nordeste 30 Nordeste 0 -- -- 86
2021-02-25 20:00:00 7.9 13 Este 21 Nordeste 0 -- -- 84
2021-02-25 19:00:00 8.6 9 Nordeste 14 Nordeste 0 -- -- 80
2021-02-25 18:00:00 10 9 Nordeste 17 Este 0 -- -- 76
2021-02-25 17:00:00 11.2 5 Este 14 Sudeste 0 -- -- 71
2021-02-25 16:00:00 11.5 8 Sudeste 17 Sur 0 -- -- 72
2021-02-25 15:00:00 12.1 8 Sudeste 18 Sudeste 0 -- -- 70
2021-02-25 14:00:00 10.8 6 Este 16 Sudeste 0 -- -- 75
2021-02-25 13:00:00 9.9 6 Sudeste 17 Este 0 -- -- 77
2021-02-25 12:00:00 8.8 8 Sudeste 17 Sudeste 0 -- -- 80
2021-02-25 11:00:00 7.1 3 Sur 10 Oeste 0 -- -- 91
2021-02-25 10:00:00 4.3 0 Calma 6 Noroeste 0 -- -- 100
2021-02-25 09:00:00 2.3 2 Norte 5 Noroeste 0 -- -- 99
2021-02-25 08:00:00 1.4 0 Calma 7 Nordeste 0 -- -- 98
2021-02-25 07:00:00 2.1 5 Nordeste 10 Noroeste 0 -- -- 96
2021-02-25 06:00:00 3.1 6 Nordeste 12 Noroeste 0 -- -- 96
2021-02-25 05:00:00 3.7 3 Sur 10 Este 0 -- -- 95
2021-02-25 04:00:00 3.5 3 Noroeste 8 Sudeste 0 -- -- 97
2021-02-25 03:00:00 3.9 4 Nordeste 9 Sudeste 0 -- -- 95
2021-02-25 02:00:00 3.8 3 Sudeste 9 Sudeste 0 -- -- 96
2021-02-25 01:00:00 4 3 Este 7 Norte 0 -- -- 92
2021-02-25 00:00:00 5.6 4 Sudeste 10 Sur 0 -- -- 91
2021-02-24 23:00:00 5.2 2 Noroeste 10 Sur 0 -- -- 89
2021-02-24 22:00:00 6.4 6 Sudeste 15 Sudeste 0 -- -- 85
2021-02-24 21:00:00 7 8 Sudeste 17 Sur 0 -- -- 82
2021-02-24 20:00:00 7 2 Sudeste 8 Sudoeste 0 -- -- 83
2021-02-24 19:00:00 10.8 8 Sudoeste 29 Sudoeste 0 -- -- 72
2021-02-24 18:00:00 13.3 20 Sudoeste 34 Sur 0 -- -- 63
2021-02-24 17:00:00 14.5 23 Sudoeste 36 Sur 0 -- -- 60
2021-02-24 16:00:00 14.2 22 Sudoeste 39 Sur 0 -- -- 65
2021-02-24 15:00:00 13 20 Sudoeste 38 Sur 0 -- -- 67
2021-02-24 14:00:00 11.8 22 Sur 30 Sur 0 -- -- 72
2021-02-24 13:00:00 10.6 24 Sudoeste 32 Sudoeste 0 -- -- 74
2021-02-24 12:00:00 8.1 10 Sudoeste 22 Sur 0 -- -- 87
2021-02-24 11:00:00 4.5 5 Sur 8 Sur 0 -- -- 100
2021-02-24 10:00:00 0.8 0 Calma 6 Norte 0 -- -- 100
2021-02-24 09:00:00 -2.1 0 Calma 5 Nordeste 0 -- -- 98
2021-02-24 08:00:00 -2.5 3 Nordeste 4 Este 0 -- -- 97
2021-02-24 07:00:00 -2.2 2 Sur 8 Norte 0 -- -- 97
2021-02-24 06:00:00 -2.2 4 Nordeste 7 Nordeste 0 -- -- 97
2021-02-24 05:00:00 -2.4 0 Calma 8 Nordeste 0 -- -- 96
2021-02-24 04:00:00 -1.7 3 Nordeste 10 Noroeste 0 -- -- 95
2021-02-24 03:00:00 -1.7 3 Norte 12 Norte 0 -- -- 95
2021-02-24 02:00:00 -1.7 5 Norte 10 Noroeste 0 -- -- 96
2021-02-24 01:00:00 -1.4 6 Norte 10 Norte 0 -- -- 96
2021-02-24 00:00:00 -1.7 3 Norte 6 Norte 0 -- -- 94
2021-02-23 23:00:00 -0.2 4 Nordeste 9 Norte 0 -- -- 90
2021-02-23 22:00:00 0.7 4 Norte 10 Norte 0 -- -- 89
2021-02-23 21:00:00 2.5 5 Norte 8 Nordeste 0 -- -- 84
2021-02-23 20:00:00 3.8 3 Nordeste 4 Este 0 -- -- 84
2021-02-23 19:00:00 8.5 0 Calma 18 Sudoeste 0 -- -- 68
2021-02-23 18:00:00 11.4 13 Sudoeste 23 Sudoeste 0 -- -- 57
2021-02-23 17:00:00 11.8 15 Sudoeste 27 Sudoeste 0 -- -- 52
2021-02-23 16:00:00 11.1 17 Sudoeste 27 Sudoeste 0 -- -- 54
2021-02-23 15:00:00 10.8 15 Sur 27 Sudoeste 0 -- -- 56
2021-02-23 14:00:00 9.6 15 Sudoeste 22 Sudoeste 0 -- -- 58
2021-02-23 13:00:00 8.4 13 Sudoeste 24 Sudoeste 0 -- -- 65
2021-02-23 12:00:00 6.1 8 Sur 14 Sudeste 0 -- -- 84
2021-02-23 11:00:00 2.7 3 Oeste 7 Noroeste 0 -- -- 88
2021-02-23 10:00:00 -0.8 4 Noroeste 8 Norte 0 -- -- 97
2021-02-23 09:00:00 -2.8 4 Nordeste 10 Noroeste 0 -- -- 96
2021-02-23 08:00:00 -3.5 0 Calma 8 Nordeste 0 -- -- 95
2021-02-23 07:00:00 -3 4 Nordeste 10 Norte 0 -- -- 95
2021-02-23 06:00:00 -2.5 4 Nordeste 10 Norte 0 -- -- 95
2021-02-23 05:00:00 -2.4 5 Norte 9 Norte 0 -- -- 97
2021-02-23 04:00:00 -2.1 4 Norte 8 Norte 0 -- -- 96
2021-02-23 03:00:00 -1.6 5 Norte 10 Norte 0 -- -- 96
2021-02-23 02:00:00 -1.5 8 Nordeste 12 Nordeste 0 -- -- 96
2021-02-23 01:00:00 -1.2 6 Nordeste 11 Noroeste 0 -- -- 95
2021-02-23 00:00:00 -1 5 Norte 10 Noroeste 0 -- -- 96
2021-02-22 23:00:00 -0.4 6 Nordeste 11 Norte 0 -- -- 93
2021-02-22 22:00:00 0.2 2 Nordeste 8 Noroeste 0 -- -- 93
2021-02-22 21:00:00 1.4 4 Sudeste 8 Sur 0 -- -- 91
2021-02-22 20:00:00 2.9 4 Sudeste 7 Sur 0 -- -- 87
2021-02-22 19:00:00 7.9 7 Sur 19 Sudoeste 0 -- -- 71
2021-02-22 18:00:00 9.4 16 Sudoeste 24 Sudoeste 0 -- -- 60
2021-02-22 17:00:00 9.3 8 Sur 20 Sudoeste 0 -- -- 68
2021-02-22 16:00:00 9.7 14 Sudoeste 26 Sur 0 -- -- 64
2021-02-22 15:00:00 9.1 14 Sur 25 Sudoeste 0 -- -- 78
2021-02-22 14:00:00 8.7 6 Sur 17 Sudoeste 0 -- -- 80
2021-02-22 13:00:00 7.2 8 Sur 13 Sur 0 -- -- 86
2021-02-22 12:00:00 4.8 4 Noroeste 13 Oeste 0 -- -- 91
2021-02-22 11:00:00 3.7 7 Noroeste 11 Noroeste 0 -- -- 99
2021-02-22 10:00:00 2.4 0 Calma 8 Este 0 -- -- 100
2021-02-22 09:00:00 1.5 3 Este 10 Sudeste 0 -- -- 98
2021-02-22 08:00:00 1.8 6 Sudeste 10 Sudeste 0 -- -- 97
2021-02-22 07:00:00 2.4 5 Sudeste 9 Sudeste 0 -- -- 97
2021-02-22 06:00:00 2.6 5 Sudeste 12 Sudeste 0 -- -- 97
2021-02-22 05:00:00 2.7 5 Sudeste 9 Sudeste 0.4 -- -- 96
2021-02-22 04:00:00 2.8 4 Oeste 7 Sur 0.6 -- -- 96
2021-02-22 03:00:00 2.7 4 Sudoeste 9 Sudoeste 1 -- -- 96
2021-02-22 02:00:00 2.7 0 Calma 6 Nordeste 0.6 -- -- 96
2021-02-22 01:00:00 2.5 5 Norte 23 Nordeste 0.6 -- -- 97
2021-02-22 00:00:00 2.6 12 Nordeste 23 Nordeste 1.4 -- -- 96
2021-02-21 23:00:00 3.8 10 Nordeste 19 Norte 1.6 -- -- 95
2021-02-21 22:00:00 4.2 7 Norte 18 Norte 0.8 -- -- 96
2021-02-21 21:00:00 5 9 Norte 17 Noroeste 1 -- -- 94
2021-02-21 20:00:00 5.6 13 Oeste 18 Oeste 2 -- -- 93
2021-02-21 19:00:00 6.9 9 Sudeste 20 Este 1.2 -- -- 92
2021-02-21 18:00:00 7.4 10 Este 25 Este 0.8 -- -- 89
2021-02-21 17:00:00 8.6 15 Sudeste 31 Este 0 -- -- 78
2021-02-21 16:00:00 8.6 11 Sudeste 24 Sudeste 0 -- -- 73
2021-02-21 15:00:00 8.5 9 Sur 18 Sudeste 0 -- -- 73
2021-02-21 14:00:00 8.7 7 Sudeste 17 Sudeste 0 -- -- 73
2021-02-21 13:00:00 8.3 6 Sudeste 30 Sudeste 0 -- -- 73
2021-02-21 12:00:00 8.6 11 Este 27 Sur 0 -- -- 71
2021-02-21 11:00:00 8.2 11 Sudeste 21 Sudeste 0 -- -- 72
2021-02-21 10:00:00 7.3 8 Sudeste 20 Sudeste 0 -- -- 75
2021-02-21 09:00:00 6.6 8 Sudeste 17 Sudeste 0 -- -- 77
2021-02-21 08:00:00 6.9 8 Sur 21 Sudeste 0 -- -- 76
2021-02-21 07:00:00 7.3 11 Sudeste 23 Sudeste 0 -- -- 75
2021-02-21 06:00:00 7.7 13 Sudeste 25 Sudeste 0 -- -- 72
2021-02-21 05:00:00 7.7 12 Sudeste 27 Sudeste 0 -- -- 69
2021-02-21 04:00:00 7 10 Sudeste 17 Sur 0 -- -- 64
2021-02-21 03:00:00 7 8 Sudeste 16 Sudeste 0 -- -- 62
2021-02-21 02:00:00 7 8 Sudeste 15 Sur 0 -- -- 63
2021-02-21 01:00:00 7.5 10 Sur 20 Sur 0 -- -- 61
2021-02-21 00:00:00 7.8 8 Sudeste 20 Sudeste 0 -- -- 63
2021-02-20 23:00:00 8.1 11 Sudeste 23 Sur 0 -- -- 62
2021-02-20 22:00:00 8.6 9 Sudeste 22 Sur 0 -- -- 60
2021-02-20 21:00:00 9 17 Sur 28 Sur 0 -- -- 61
2021-02-20 20:00:00 9.1 20 Sur 32 Sur 0 -- -- 63
2021-02-20 19:00:00 9.6 21 Sur 37 Sur 0 -- -- 61
2021-02-20 18:00:00 10.3 29 Sur 45 Sur 0 -- -- 61
2021-02-20 17:00:00 11 25 Sur 42 Sur 0 -- -- 58
2021-02-20 16:00:00 11.2 29 Sudoeste 44 Sudoeste 0 -- -- 60
2021-02-20 15:00:00 10.8 17 Sudoeste 29 Sudoeste 0 -- -- 66
2021-02-20 14:00:00 10.7 21 Sudoeste 39 Sur 0 -- -- 64
2021-02-20 13:00:00 10.7 29 Sur 48 Sudoeste 0 -- -- 63
2021-02-20 12:00:00 9.7 26 Sudoeste 38 Sudoeste 0 -- -- 67
2021-02-20 11:00:00 7.3 15 Sudoeste 26 Sudoeste 0 -- -- 76
2021-02-20 10:00:00 6.5 21 Sudoeste 31 Sur 0 -- -- 76
2021-02-20 09:00:00 4.5 18 Sudoeste 28 Sudoeste 0 -- -- 82
2021-02-20 08:00:00 4.2 22 Sudoeste 28 Sudoeste 0 -- -- 83
2021-02-20 07:00:00 3.7 13 Sudoeste 19 Sudoeste 0 -- -- 86
2021-02-20 06:00:00 4.2 15 Sudoeste 23 Sur 0 -- -- 85
2021-02-20 05:00:00 4.8 17 Sudoeste 27 Sudoeste 0 -- -- 85
2021-02-20 04:00:00 5.3 19 Sudoeste 41 Sudoeste 0 -- -- 84
2021-02-20 03:00:00 4.7 20 Sudoeste 35 Sudoeste 0 -- -- 88
2021-02-20 02:00:00 4.9 9 Sur 25 Sudoeste 0 -- -- 88
2021-02-20 01:00:00 4.9 18 Sur 28 Sur 0 -- -- 88
2021-02-20 00:00:00 5.5 16 Sur 24 Sur 0 -- -- 85
2021-02-19 23:00:00 6.1 17 Sudoeste 24 Sudoeste 0 -- -- 83
2021-02-19 22:00:00 6.4 11 Sudoeste 22 Oeste 0 -- -- 83
2021-02-19 21:00:00 6.8 8 Sudoeste 26 Oeste 0 -- -- 82
2021-02-19 20:00:00 7.5 9 Sudoeste 20 Sudoeste 0 -- -- 79
2021-02-19 19:00:00 8.9 15 Sudoeste 26 Sudoeste 0 -- -- 72
2021-02-19 18:00:00 10.3 20 Sudoeste 33 Sudoeste 0 -- -- 67
2021-02-19 17:00:00 11 22 Sudoeste 35 Sudoeste 0 -- -- 69
2021-02-19 16:00:00 11.5 30 Sudoeste 48 Sudoeste 0 -- -- 63
2021-02-19 15:00:00 12.5 30 Sudoeste 45 Sudoeste 0 -- -- 59
2021-02-19 14:00:00 11.4 32 Sudoeste 51 Sudoeste 0 -- -- 64
2021-02-19 13:00:00 10.4 26 Sudoeste 42 Sudoeste 0 -- -- 72
2021-02-19 12:00:00 8 18 Sudoeste 36 Sudoeste 0 -- -- 91
2021-02-19 11:00:00 7.2 22 Sudoeste 36 Sur 0 -- -- 90
2021-02-19 10:00:00 6.8 23 Sudoeste 31 Sudoeste 0 -- -- 94
2021-02-19 09:00:00 6.4 17 Sudoeste 29 Sudoeste 0 -- -- 99
2021-02-19 08:00:00 6.5 19 Sudoeste 34 Sur 0 -- -- 99
2021-02-19 07:00:00 6.7 17 Sudoeste 33 Sudoeste 0.4 -- -- 99
2021-02-19 06:00:00 6.6 23 Sudoeste 37 Sudoeste 1 -- -- 99
2021-02-19 05:00:00 6.6 13 Sudoeste 26 Sudoeste 0.4 -- -- 99
2021-02-19 04:00:00 6.8 15 Sudoeste 24 Sudoeste 0.2 -- -- 98
2021-02-19 03:00:00 6.9 16 Sudoeste 31 Sudoeste 0 -- -- 98
2021-02-19 02:00:00 7.1 22 Sudoeste 31 Sudoeste 0 -- -- 97
2021-02-19 01:00:00 7.3 20 Sudoeste 33 Sudoeste 0.2 -- -- 98
2021-02-19 00:00:00 7.4 23 Sudoeste 40 Sudoeste 0.2 -- -- 98
2021-02-18 23:00:00 7.4 23 Sudoeste 35 Sudoeste 0 -- -- 98
2021-02-18 22:00:00 7.2 22 Sudoeste 33 Sudoeste 0 -- -- 97
2021-02-18 21:00:00 7.1 19 Sudoeste 28 Sudoeste 0.2 -- -- 96
2021-02-18 20:00:00 7.5 19 Sudoeste 42 Sur 0.6 -- -- 94
2021-02-18 19:00:00 8.1 16 Sudoeste 35 Sudoeste 0 -- -- 90
2021-02-18 18:00:00 9.1 24 Sudoeste 34 Sudoeste 0 -- -- 84
2021-02-18 17:00:00 8.8 26 Sudoeste 59 Sudoeste 0.2 -- -- 91
2021-02-18 16:00:00 10.4 38 Sudoeste 54 Sudoeste 0 -- -- 77
2021-02-18 15:00:00 9.4 33 Sudoeste 65 Sudoeste 0 -- -- 80
2021-02-18 14:00:00 8.9 34 Sudoeste 54 Sudoeste 0 -- -- 83
2021-02-18 13:00:00 7.9 30 Sudoeste 48 Sudoeste 0 -- -- 88
2021-02-18 12:00:00 7.3 32 Sudoeste 50 Sur 0 -- -- 89
2021-02-18 11:00:00 7.1 28 Sudoeste 41 Sudoeste 0 -- -- 91
2021-02-18 10:00:00 6.1 30 Sudoeste 44 Sudoeste 0 -- -- 93
2021-02-18 09:00:00 5.6 24 Sudoeste 35 Sudoeste 0 -- -- 95
2021-02-18 08:00:00 5.6 27 Sudoeste 39 Sudoeste 0 -- -- 96
2021-02-18 07:00:00 5.8 27 Sudoeste 37 Sudoeste 0 -- -- 96
2021-02-18 06:00:00 6 25 Sudoeste 49 Sudoeste 0 -- -- 96
2021-02-18 05:00:00 6 28 Sudoeste 42 Sur 0 -- -- 95
2021-02-18 04:00:00 6.5 32 Sudoeste 47 Sudoeste 0.2 -- -- 94
2021-02-18 03:00:00 6.5 27 Sudoeste 43 Sudoeste 0 -- -- 92
2021-02-18 02:00:00 7.1 29 Sudoeste 39 Sudoeste 0 -- -- 92
2021-02-18 01:00:00 7.5 26 Sudoeste 40 Sudoeste 0 -- -- 90
2021-02-18 00:00:00 7.5 24 Sudoeste 39 Sudoeste 0 -- -- 92
2021-02-17 23:00:00 7.3 18 Sudoeste 27 Sudoeste 0 -- -- 96
2021-02-17 22:00:00 7.6 13 Sudoeste 22 Sudoeste 0 -- -- 94
2021-02-17 21:00:00 8.3 10 Sudoeste 14 Sudoeste 0 -- -- 93
2021-02-17 20:00:00 8.7 12 Sudoeste 19 Sur 0 -- -- 94
2021-02-17 19:00:00 8.9 14 Sudoeste 25 Sudoeste 0 -- -- 93
2021-02-17 18:00:00 9.5 16 Sudoeste 29 Sudoeste 0 -- -- 89
2021-02-17 17:00:00 9.7 20 Sudoeste 34 Sudoeste 0 -- -- 90
2021-02-17 16:00:00 9.9 21 Sudoeste 37 Sudoeste 0 -- -- 83
2021-02-17 15:00:00 10.7 28 Sudoeste 44 Sudoeste 0 -- -- 78
2021-02-17 14:00:00 9.9 21 Sudoeste 35 Sudoeste 0 -- -- 86
2021-02-17 13:00:00 8.6 17 Oeste 27 Oeste 0 -- -- 92
2021-02-17 12:00:00 7.6 17 Sudoeste 27 Sudoeste 0 -- -- 98
2021-02-17 11:00:00 6.9 14 Sudoeste 22 Sudoeste 0 -- -- 99
2021-02-17 10:00:00 6.4 8 Sudoeste 21 Sudoeste 0 -- -- 100
2021-02-17 09:00:00 5.9 8 Sudoeste 15 Sudoeste 0 -- -- 99
2021-02-17 08:00:00 5.6 6 Sudoeste 17 Sudoeste 0 -- -- 99
2021-02-17 07:00:00 5.3 8 Sudoeste 10 Oeste 0 -- -- 99
2021-02-17 06:00:00 5 0 Calma 6 Oeste 0 -- -- 98
2021-02-17 05:00:00 5.2 3 Oeste 9 Sudoeste 0 -- -- 97
2021-02-17 04:00:00 5.2 0 Calma 4 Noroeste 0 -- -- 97
2021-02-17 03:00:00 5.8 3 Norte 13 Oeste 0 -- -- 96
2021-02-17 02:00:00 5.9 12 Oeste 17 Oeste 0 -- -- 95
2021-02-17 01:00:00 5.6 6 Oeste 9 Oeste 0 -- -- 96
2021-02-17 00:00:00 6.1 8 Oeste 26 Oeste 0 -- -- 96
2021-02-16 23:00:00 5.9 6 Sudoeste 13 Sudoeste 0 -- -- 98
2021-02-16 22:00:00 6 7 Sudoeste 12 Sudoeste 0 -- -- 98
2021-02-16 21:00:00 5.6 6 Sur 12 Sur 0 -- -- 98
2021-02-16 20:00:00 6.4 4 Sur 8 Sudoeste 0 -- -- 92
2021-02-16 19:00:00 7.6 4 Sur 12 Oeste 0 -- -- 92
2021-02-16 18:00:00 8 10 Noroeste 42 Sudoeste 1.2 -- -- 89
2021-02-16 17:00:00 9.6 33 Sudoeste 48 Sudoeste 0 -- -- 85
2021-02-16 16:00:00 9.7 28 Sudoeste 44 Sudoeste 0 -- -- 82
2021-02-16 15:00:00 9.6 31 Sudoeste 46 Sudoeste 0 -- -- 83
2021-02-16 14:00:00 8.7 32 Sudoeste 49 Sudoeste 0 -- -- 82
2021-02-16 13:00:00 8.8 34 Sudoeste 62 Sudoeste 0 -- -- 82
2021-02-16 12:00:00 9.7 33 Sudoeste 52 Sudoeste 0 -- -- 79
2021-02-16 11:00:00 7.2 32 Sudoeste 45 Sudoeste 0 -- -- 87
2021-02-16 10:00:00 2.6 12 Sur 23 Sudoeste 0 -- -- 100
2021-02-16 09:00:00 0.2 5 Norte 17 Norte 0 -- -- 100
2021-02-16 08:00:00 -1.6 3 Nordeste 6 Este 0 -- -- 99
2021-02-16 07:00:00 -1.2 3 Este 9 Norte 0 -- -- 98
2021-02-16 06:00:00 -1.1 3 Norte 9 Noroeste 0 -- -- 99
2021-02-16 05:00:00 -1 3 Norte 9 Noroeste 0 -- -- 98
2021-02-16 04:00:00 -0.8 3 Norte 9 Norte 0 -- -- 98
2021-02-16 03:00:00 -0.1 0 Calma 9 Norte 0 -- -- 98
2021-02-16 02:00:00 0.4 0 Calma 6 Noroeste 0 -- -- 98
2021-02-16 01:00:00 1.1 3 Norte 5 Norte 0 -- -- 97
2021-02-16 00:00:00 2.1 3 Nordeste 5 Este 0 -- -- 96
2021-02-15 23:00:00 2.8 0 Calma 9 Este 0 -- -- 95
2021-02-15 22:00:00 3.7 6 Nordeste 10 Norte 0 -- -- 93
2021-02-15 21:00:00 4.6 3 Nordeste 7 Este 0 -- -- 91
2021-02-15 20:00:00 6.1 0 Calma 3 Este 0 -- -- 88
2021-02-15 19:00:00 10.1 0 Calma 17 Sur 0 -- -- 76
2021-02-15 18:00:00 14.1 13 Sur 21 Sur 0 -- -- 65
2021-02-15 17:00:00 14.8 13 Sur 22 Sur 0 -- -- 63
2021-02-15 16:00:00 15.1 13 Sur 21 Sudeste 0 -- -- 60
2021-02-15 15:00:00 14.5 10 Sur 20 Sur 0 -- -- 72
2021-02-15 14:00:00 11.6 7 Sur 11 Sur 0 -- -- 76
2021-02-15 13:00:00 9.1 3 Oeste 8 Norte 0 -- -- 81
2021-02-15 12:00:00 6.7 5 Norte 9 Noroeste 0 -- -- 93
2021-02-15 11:00:00 4.9 6 Noroeste 13 Norte 0 -- -- 100
2021-02-15 10:00:00 2.2 8 Norte 14 Noroeste 0 -- -- 100
2021-02-15 09:00:00 0.2 5 Norte 8 Noroeste 0 -- -- 100
2021-02-15 08:00:00 -0.3 4 Norte 6 Norte 0 -- -- 100
2021-02-15 07:00:00 -0.3 3 Norte 6 Noroeste 0 -- -- 100
2021-02-15 06:00:00 0.1 0 Calma 6 Nordeste 0 -- -- 100
2021-02-15 05:00:00 0.5 4 Nordeste 6 Nordeste 0 -- -- 99
2021-02-15 04:00:00 0.9 4 Norte 8 Norte 0 -- -- 100
2021-02-15 03:00:00 0.7 0 Calma 6 Norte 0 -- -- 99
2021-02-15 02:00:00 1 4 Norte 7 Norte 0 -- -- 99
2021-02-15 01:00:00 1.8 2 Nordeste 9 Norte 0 -- -- 98
2021-02-15 00:00:00 2.5 5 Norte 9 Norte 0 -- -- 99
2021-02-14 23:00:00 3 4 Norte 10 Norte 0 -- -- 98
2021-02-14 22:00:00 3.8 4 Norte 8 Norte 0 -- -- 98
2021-02-14 21:00:00 4.9 5 Norte 9 Norte 0 -- -- 98
2021-02-14 20:00:00 5.5 2 Sudeste 8 Nordeste 0 -- -- 95
2021-02-14 19:00:00 7.1 4 Nordeste 5 Nordeste 0 -- -- 93
2021-02-14 18:00:00 9.9 0 Calma 12 Sudoeste 0 -- -- 85
2021-02-14 17:00:00 10.5 6 Sudoeste 15 Sudoeste 0 -- -- 82
2021-02-14 16:00:00 10.8 11 Sudoeste 16 Sudoeste 0 -- -- 82
2021-02-14 15:00:00 10.5 10 Sudoeste 19 Sudoeste 0 -- -- 88
2021-02-14 14:00:00 8.9 10 Sudoeste 17 Sudoeste 0 -- -- 95
2021-02-14 13:00:00 7.1 10 Sur 14 Sur 0 -- -- 100
2021-02-14 12:00:00 5.3 0 Calma 5 Sur 0 -- -- 100
2021-02-14 11:00:00 3.7 2 Sur 6 Sudeste 0 -- -- 100
2021-02-14 10:00:00 0.4 0 Calma 4 Sur 0 -- -- 100
2021-02-14 09:00:00 -1.1 0 Calma 5 Nordeste 0 -- -- 99
2021-02-14 08:00:00 -1.4 2 Norte 9 Nordeste 0 -- -- 99
2021-02-14 07:00:00 -1 2 Norte 7 Nordeste 0 -- -- 99
2021-02-14 06:00:00 -0.9 0 Calma 7 Noroeste 0 -- -- 98
2021-02-14 05:00:00 -0.1 3 Norte 11 Norte 0 -- -- 99
2021-02-14 04:00:00 -0.6 3 Nordeste 6 Norte 0 -- -- 98
2021-02-14 03:00:00 0 4 Norte 9 Norte 0 -- -- 98
2021-02-14 02:00:00 0.6 3 Norte 9 Norte 0 -- -- 97
2021-02-14 01:00:00 1.8 4 Norte 11 Norte 0 -- -- 97
2021-02-14 00:00:00 2.3 6 Norte 9 Norte 0 -- -- 97
2021-02-13 23:00:00 2.8 2 Nordeste 5 Nordeste 0 -- -- 96
2021-02-13 22:00:00 4.4 3 Nordeste 8 Este 0 -- -- 94
2021-02-13 21:00:00 6.2 3 Este 4 Este 0 -- -- 92
2021-02-13 20:00:00 7.6 3 Este 12 Sudoeste 0 -- -- 89
2021-02-13 19:00:00 9.7 7 Sur 17 Sur 0 -- -- 82
2021-02-13 18:00:00 10.4 8 Oeste 23 Sudoeste 0 -- -- 76
2021-02-13 17:00:00 12.5 17 Sudoeste 25 Oeste 0 -- -- 66
2021-02-13 16:00:00 12 11 Sudoeste 24 Sudoeste 0 -- -- 69
2021-02-13 15:00:00 11.5 17 Sur 26 Sur 0 -- -- 75
2021-02-13 14:00:00 10.2 11 Sur 17 Sur 0 -- -- 83
2021-02-13 13:00:00 7.7 8 Sur 15 Sudoeste 0 -- -- 92
2021-02-13 08:00:00 -- -- -- -- -- -- -- -- --
2021-02-13 07:00:00 2.1 0 Calma 8 Noroeste 0 -- -- 100
2021-02-13 06:00:00 2.1 0 Calma 5 Norte 0 -- -- 100
2021-02-13 05:00:00 1.7 3 Noroeste 8 Norte 0 -- -- 100
2021-02-13 04:00:00 0.7 4 Nordeste 7 Norte 0 -- -- 99
2021-02-13 03:00:00 0.1 6 Norte 10 Noroeste 0 -- -- 98
2021-02-13 02:00:00 0.4 2 Norte 11 Norte 0 -- -- 97
2021-02-13 01:00:00 0.3 3 Norte 8 Norte 0 -- -- 97
2021-02-13 00:00:00 0.9 5 Norte 10 Norte 0 -- -- 97
2021-02-12 23:00:00 1.5 3 Este 9 Sudeste 0 -- -- 96
2021-02-12 22:00:00 1.7 8 Nordeste 10 Este 0 -- -- 93
2021-02-12 21:00:00 3.2 5 Este 11 Nordeste 0 -- -- 87
2021-02-12 20:00:00 5.8 5 Nordeste 13 Norte 0 -- -- 80
2021-02-12 19:00:00 7.5 5 Norte 23 Noroeste 0 -- -- 72
2021-02-12 18:00:00 10.3 13 Noroeste 27 Noroeste 0 -- -- 59
2021-02-12 17:00:00 11.5 15 Noroeste 30 Noroeste 0 -- -- 62
2021-02-12 16:00:00 11.4 22 Noroeste 36 Oeste 0 -- -- 67
2021-02-12 15:00:00 11.8 21 Noroeste 35 Noroeste 0 -- -- 67
2021-02-12 14:00:00 11.4 25 Noroeste 39 Noroeste 0 -- -- 71
2021-02-12 13:00:00 10.2 19 Noroeste 29 Noroeste 0 -- -- 79
2021-02-12 12:00:00 8.3 15 Oeste 24 Oeste 0 -- -- 91
2021-02-12 11:00:00 7.1 15 Oeste 23 Oeste 0 -- -- 94
2021-02-12 10:00:00 6.5 15 Noroeste 30 Oeste 0.2 -- -- 94
2021-02-12 09:00:00 6.6 17 Oeste 34 Oeste 0 -- -- 94
2021-02-12 08:00:00 6.5 13 Oeste 24 Oeste 0 -- -- 93
2021-02-12 07:00:00 6.9 20 Oeste 37 Oeste 0.2 -- -- 92
2021-02-12 06:00:00 7.4 18 Oeste 25 Oeste 0.2 -- -- 97
2021-02-12 05:00:00 7.4 11 Sudoeste 31 Oeste 0 -- -- 95
2021-02-12 04:00:00 8.2 26 Oeste 50 Sudoeste 0.2 -- -- 95
2021-02-12 03:00:00 8.5 32 Sudoeste 50 Sudoeste 1.4 -- -- 99
2021-02-12 02:00:00 8.3 28 Sur 43 Sudoeste 1.6 -- -- 98
2021-02-12 01:00:00 8.6 24 Sudoeste 36 Sudoeste 0 -- -- 97
2021-02-12 00:00:00 8.9 24 Sudoeste 35 Sudoeste 0 -- -- 96
2021-02-11 23:00:00 9.2 21 Sudoeste 37 Sur 0 -- -- 96
2021-02-11 22:00:00 9.4 22 Sudoeste 30 Sudoeste 0 -- -- 95
2021-02-11 21:00:00 9.6 14 Sur 26 Sudoeste 0 -- -- 95
2021-02-11 20:00:00 9.8 14 Sudoeste 21 Sudoeste 0 -- -- 94
2021-02-11 19:00:00 10.2 12 Sudoeste 24 Sudoeste 0 -- -- 93
2021-02-11 18:00:00 10.9 21 Sudoeste 31 Sudoeste 0 -- -- 89
2021-02-11 17:00:00 11 15 Sudoeste 20 Sudoeste 0 -- -- 88
2021-02-11 16:00:00 10.4 6 Oeste 18 Oeste 0 -- -- 87
2021-02-11 15:00:00 9.5 10 Oeste 21 Oeste 0 -- -- 91
2021-02-11 14:00:00 8.4 17 Oeste 26 Sudoeste 0 -- -- 94
2021-02-11 13:00:00 7.6 12 Sudoeste 20 Sudoeste 0 -- -- 100
2021-02-11 12:00:00 6.8 8 Sudoeste 14 Sudoeste 0 -- -- 100
2021-02-11 11:00:00 5.7 2 Noroeste 8 Sudoeste 0 -- -- 100
2021-02-11 10:00:00 5.3 5 Sudoeste 7 Sudoeste 0 -- -- 100
2021-02-11 09:00:00 4.6 3 Nordeste 6 Norte 0 -- -- 98
2021-02-11 08:00:00 4.7 0 Calma 4 Sudeste 0 -- -- 96
2021-02-11 07:00:00 4.7 0 Calma 6 Oeste 0 -- -- 95
2021-02-11 06:00:00 4.7 5 Oeste 12 Oeste 0 -- -- 94
2021-02-11 05:00:00 4.6 6 Oeste 17 Sudoeste 0 -- -- 94
2021-02-11 04:00:00 4.6 12 Sudoeste 18 Oeste 0 -- -- 92
2021-02-11 03:00:00 4.7 9 Oeste 15 Oeste 0 -- -- 91
2021-02-11 02:00:00 3.9 4 Oeste 17 Sudoeste 0 -- -- 95
2021-02-11 01:00:00 1.8 3 Este 6 Este 0 -- -- 96
2021-02-11 00:00:00 2.3 0 Calma 5 Oeste 0 -- -- 96
2021-02-10 23:00:00 1.9 0 Calma 11 Sudeste 0 -- -- 94
2021-02-10 22:00:00 3 4 Sur 10 Sudeste 0 -- -- 92
2021-02-10 21:00:00 3.7 6 Sur 10 Sudoeste 0 -- -- 91
2021-02-10 20:00:00 4.2 3 Sudeste 9 Sudoeste 0 -- -- 88
2021-02-10 19:00:00 5.7 6 Oeste 17 Oeste 0 -- -- 80
2021-02-10 18:00:00 7 14 Oeste 26 Oeste 0 -- -- 73
2021-02-10 17:00:00 8.6 20 Sudoeste 36 Sudoeste 0 -- -- 71
2021-02-10 16:00:00 8.4 24 Sudoeste 34 Sudoeste 0 -- -- 72
2021-02-10 15:00:00 8.4 20 Oeste 36 Sudoeste 0 -- -- 69
2021-02-10 14:00:00 7.7 26 Sudoeste 39 Sudoeste 0 -- -- 74
2021-02-10 13:00:00 6.7 24 Oeste 36 Sudoeste 0 -- -- 77
2021-02-10 12:00:00 5.1 21 Sudoeste 31 Oeste 0 -- -- 81
2021-02-10 11:00:00 3.5 19 Oeste 31 Oeste 0 -- -- 88
2021-02-10 10:00:00 1.6 17 Oeste 29 Oeste 0 -- -- 95
2021-02-10 09:00:00 0.6 19 Oeste 32 Oeste 0 -- -- 96
2021-02-10 08:00:00 0.6 18 Noroeste 30 Noroeste 0 -- -- 95
2021-02-10 07:00:00 1.4 21 Noroeste 36 Oeste 0 -- -- 93
2021-02-10 06:00:00 1.2 24 Oeste 41 Noroeste 0 -- -- 95
2021-02-10 05:00:00 1.4 30 Oeste 51 Noroeste 0.2 -- -- 94
2021-02-10 04:00:00 1.9 24 Oeste 51 Sudoeste 0.8 -- -- 97
2021-02-10 03:00:00 2.5 29 Sudoeste 45 Sudoeste 1.6 -- -- 97
2021-02-10 02:00:00 3 25 Sudoeste 36 Sudoeste 0 -- -- 98
2021-02-10 01:00:00 2.6 24 Sudoeste 39 Oeste 0 -- -- 97
2021-02-10 00:00:00 2.5 28 Sudoeste 46 Sudoeste 0 -- -- 95
2021-02-09 23:00:00 2.3 24 Oeste 42 Oeste 0 -- -- 95
2021-02-09 22:00:00 2.4 28 Oeste 52 Sudoeste 0 -- -- 95
2021-02-09 21:00:00 2.6 35 Sudoeste 48 Sudoeste 0 -- -- 97
2021-02-09 20:00:00 2.6 24 Sudoeste 38 Sudoeste 0.2 -- -- 96
2021-02-09 19:00:00 3.4 25 Sudoeste 38 Sudoeste 0 -- -- 94
2021-02-09 18:00:00 4 24 Sudoeste 39 Sudoeste 0 -- -- 93
2021-02-09 17:00:00 4.1 28 Sudoeste 41 Sudoeste 0 -- -- 91
2021-02-09 16:00:00 4.3 33 Sudoeste 48 Sudoeste 0 -- -- 90
2021-02-09 15:00:00 4 27 Sudoeste 39 Sudoeste 0 -- -- 95
2021-02-09 14:00:00 2.7 18 Sudoeste 57 Oeste 0 -- -- 94
2021-02-09 13:00:00 2.9 26 Oeste 59 Oeste 2.2 -- -- 97
2021-02-09 12:00:00 4.9 39 Sudoeste 69 Sudoeste 3.8 -- -- 97
2021-02-09 11:00:00 5.2 44 Sudoeste 73 Sudoeste 2.2 -- -- 99
2021-02-09 10:00:00 4.9 36 Sudoeste 58 Sudoeste 1.8 -- -- 100
2021-02-09 09:00:00 4.8 36 Sudoeste 60 Sudoeste 1 -- -- 100
2021-02-09 08:00:00 4.2 33 Sudoeste 48 Sudoeste 0.2 -- -- 100
2021-02-09 07:00:00 3.8 28 Sudoeste 44 Sudoeste 0.4 -- -- 100
2021-02-09 06:00:00 3.4 31 Sudoeste 44 Sudoeste 0.2 -- -- 99
2021-02-09 05:00:00 3.2 27 Sudoeste 44 Sudoeste 0.4 -- -- 98
2021-02-09 04:00:00 3.5 31 Sudoeste 49 Sudoeste 1.2 -- -- 96
2021-02-09 03:00:00 3.9 30 Sudoeste 47 Sudoeste 0.2 -- -- 95
2021-02-09 02:00:00 4.2 27 Sudoeste 39 Sudoeste 0 -- -- 94
2021-02-09 01:00:00 4.2 24 Sudoeste 35 Sudoeste 0 -- -- 97
2021-02-09 00:00:00 3.8 15 Sudoeste 26 Sudoeste 0 -- -- 97
2021-02-08 23:00:00 3.3 13 Sudoeste 21 Sudoeste 0 -- -- 97
2021-02-08 22:00:00 2.7 8 Sudoeste 20 Oeste 0 -- -- 92
2021-02-08 21:00:00 3.5 15 Oeste 43 Oeste 0 -- -- 90
2021-02-08 20:00:00 3.7 11 Oeste 31 Oeste 0 -- -- 89
2021-02-08 19:00:00 4.5 23 Oeste 40 Oeste 0 -- -- 88
2021-02-08 18:00:00 5.7 26 Oeste 38 Oeste 0 -- -- 86
2021-02-08 17:00:00 6.1 20 Oeste 40 Oeste 0.4 -- -- 88
2021-02-08 16:00:00 5.4 15 Oeste 35 Sudoeste 0.2 -- -- 91
2021-02-08 15:00:00 5.8 26 Sudoeste 44 Sudoeste 0 -- -- 88
2021-02-08 14:00:00 6.6 22 Oeste 36 Oeste 0 -- -- 88
2021-02-08 13:00:00 5.4 23 Oeste 33 Oeste 0 -- -- 91
2021-02-08 12:00:00 4.2 21 Oeste 32 Sudoeste 0 -- -- 94
2021-02-08 11:00:00 3.7 23 Oeste 37 Oeste 0 -- -- 96
2021-02-08 10:00:00 3.3 18 Oeste 31 Oeste 0 -- -- 97
2021-02-08 09:00:00 2.8 13 Oeste 19 Oeste 0 -- -- 96
2021-02-08 08:00:00 2.7 4 Oeste 20 Oeste 0 -- -- 97
2021-02-08 07:00:00 3.6 17 Oeste 27 Oeste 0 -- -- 96
2021-02-08 06:00:00 4.5 21 Oeste 34 Sudoeste 0.2 -- -- 98
2021-02-08 05:00:00 4.8 15 Oeste 27 Sudoeste 0.2 -- -- 100
2021-02-08 04:00:00 4.4 13 Sudoeste 21 Oeste 0.4 -- -- 100
2021-02-08 03:00:00 3.2 2 Sudoeste 14 Oeste 1 -- -- 99
2021-02-08 02:00:00 3 15 Oeste 33 Sudoeste 3.4 -- -- 99
2021-02-08 01:00:00 3.3 10 Sur 17 Sudoeste 0.8 -- -- 100
2021-02-08 00:00:00 3.1 13 Sudoeste 31 Sudoeste 0.6 -- -- 100
2021-02-07 23:00:00 2.8 23 Sudoeste 35 Sudoeste 0 -- -- 99
2021-02-07 22:00:00 2.6 22 Sudoeste 33 Sudoeste 0.2 -- -- 98
2021-02-07 21:00:00 2.8 21 Sudoeste 42 Sudoeste 0 -- -- 98
2021-02-07 20:00:00 2.8 17 Sudoeste 32 Sudoeste 0 -- -- 97
2021-02-07 19:00:00 2.9 12 Sudoeste 20 Oeste 0.2 -- -- 94
2021-02-07 18:00:00 2.9 12 Oeste 22 Oeste 0 -- -- 92
2021-02-07 17:00:00 3.3 18 Oeste 31 Oeste 0 -- -- 85
2021-02-07 16:00:00 3.5 20 Oeste 33 Oeste 0 -- -- 81
2021-02-07 15:00:00 4 20 Oeste 37 Oeste 0 -- -- 78
2021-02-07 14:00:00 4 22 Oeste 35 Sudoeste 0 -- -- 78
2021-02-07 13:00:00 3.6 19 Oeste 31 Oeste 0 -- -- 81
2021-02-07 12:00:00 2.8 18 Sudoeste 27 Sudoeste 0 -- -- 79
2021-02-07 11:00:00 1.2 13 Oeste 18 Oeste 0 -- -- 90
2021-02-07 10:00:00 -1.3 0 Calma 3 Este 0 -- -- 99
2021-02-07 09:00:00 -2 0 Calma 5 Este 0 -- -- 99
2021-02-07 08:00:00 -2.3 3 Este 6 Este 0 -- -- 98
2021-02-07 07:00:00 -2.1 4 Nordeste 9 Nordeste 0 -- -- 98
2021-02-07 06:00:00 -2.1 2 Norte 6 Norte 0 -- -- 98
2021-02-07 05:00:00 -2 2 Nordeste 8 Este 0 -- -- 97
2021-02-07 04:00:00 -0.7 6 Sudeste 11 Este 0 -- -- 93
2021-02-07 03:00:00 0.8 3 Sudeste 10 Sudeste 0 -- -- 94
2021-02-07 02:00:00 1.3 4 Sudeste 11 Este 0 -- -- 94
2021-02-07 01:00:00 1.5 3 Este 8 Este 0 -- -- 93
2021-02-07 00:00:00 1.9 3 Este 12 Este 0 -- -- 90
2021-02-06 23:00:00 2.3 5 Sur 12 Este 0 -- -- 90
2021-02-06 22:00:00 2.6 6 Este 10 Este 0 -- -- 91
2021-02-06 21:00:00 2.9 4 Este 21 Nordeste 0 -- -- 87
2021-02-06 20:00:00 3.3 14 Nordeste 22 Este 0 -- -- 84
2021-02-06 19:00:00 3.9 8 Este 15 Nordeste 0 -- -- 86
2021-02-06 18:00:00 4.8 0 Calma 12 Nordeste 0 -- -- 88
2021-02-06 17:00:00 5.2 4 Norte 22 Nordeste 0 -- -- 86
2021-02-06 16:00:00 5.8 13 Nordeste 28 Nordeste 0 -- -- 79
2021-02-06 15:00:00 6.5 17 Nordeste 30 Nordeste 0 -- -- 79
2021-02-06 14:00:00 5 15 Nordeste 29 Nordeste 0 -- -- 89
2021-02-06 13:00:00 4.4 15 Nordeste 31 Nordeste 0.2 -- -- 92
2021-02-06 12:00:00 4 17 Nordeste 27 Nordeste 0.4 -- -- 92
2021-02-06 11:00:00 4 9 Nordeste 19 Norte 0.4 -- -- 94
2021-02-06 10:00:00 3.8 8 Norte 19 Nordeste 0.6 -- -- 94
2021-02-06 09:00:00 3.6 8 Norte 21 Norte 0.8 -- -- 95
2021-02-06 08:00:00 3.7 10 Norte 22 Norte 1 -- -- 95
2021-02-06 07:00:00 4 9 Nordeste 23 Nordeste 2.4 -- -- 95
2021-02-06 06:00:00 4.4 7 Norte 26 Nordeste 0.2 -- -- 94
2021-02-06 05:00:00 4.6 10 Nordeste 25 Nordeste 0.4 -- -- 94
2021-02-06 04:00:00 5.1 12 Nordeste 29 Nordeste 0.2 -- -- 94
2021-02-06 03:00:00 5.6 18 Nordeste 31 Nordeste 0 -- -- 94
2021-02-06 02:00:00 6.1 15 Nordeste 34 Este 1.8 -- -- 97
2021-02-06 01:00:00 6.4 19 Nordeste 34 Nordeste 0 -- -- 95
2021-02-06 00:00:00 6.8 15 Nordeste 29 Este 0 -- -- 91
2021-02-05 23:00:00 6.7 11 Nordeste 36 Este 0 -- -- 91
2021-02-05 22:00:00 6.8 22 Nordeste 43 Nordeste 0 -- -- 92
2021-02-05 21:00:00 6.8 21 Nordeste 43 Nordeste 0.2 -- -- 93
2021-02-05 20:00:00 6.6 16 Nordeste 30 Este 0 -- -- 94
2021-02-05 19:00:00 6.8 18 Este 40 Este 0 -- -- 94
2021-02-05 18:00:00 7.2 19 Nordeste 39 Este 0 -- -- 91
2021-02-05 17:00:00 8.9 18 Nordeste 33 Nordeste 0 -- -- 88
2021-02-05 16:00:00 9.6 16 Nordeste 22 Este 0 -- -- 86
2021-02-05 15:00:00 9.4 12 Nordeste 22 Norte 0 -- -- 90
2021-02-05 14:00:00 8.7 8 Norte 15 Nordeste 0 -- -- 96
2021-02-05 13:00:00 7.4 5 Nordeste 12 Este 0 -- -- 98
2021-02-05 12:00:00 6.2 0 Calma 6 Nordeste 1.6 -- -- 100
2021-02-05 11:00:00 5.7 0 Calma 12 Nordeste 0.8 -- -- 99
2021-02-05 10:00:00 5.4 11 Nordeste 21 Este 0.2 -- -- 99
2021-02-05 09:00:00 4.9 4 Norte 20 Nordeste 0.2 -- -- 99
2021-02-05 08:00:00 4.9 14 Nordeste 26 Nordeste 0.6 -- -- 99
2021-02-05 07:00:00 4.7 6 Nordeste 18 Nordeste 0.2 -- -- 100
2021-02-05 06:00:00 4.4 4 Nordeste 10 Norte 0.4 -- -- 100
2021-02-05 05:00:00 4.3 5 Nordeste 13 Norte 0 -- -- 100
2021-02-05 04:00:00 4.1 0 Calma 8 Nordeste 0.2 -- -- 100
2021-02-05 03:00:00 4 3 Norte 9 Noroeste 0.6 -- -- 100
2021-02-05 02:00:00 3.8 0 Calma 9 Norte 0 -- -- 100
2021-02-05 01:00:00 3.6 4 Nordeste 10 Norte 0 -- -- 100
2021-02-05 00:00:00 3.4 5 Norte 10 Noroeste 0 -- -- 100
2021-02-04 23:00:00 3.1 5 Norte 8 Norte 0 -- -- 100
2021-02-04 22:00:00 2.4 0 Calma 4 Norte 0 -- -- 99
2021-02-04 21:00:00 2.8 2 Este 6 Nordeste 0 -- -- 98
2021-02-04 20:00:00 4 0 Calma 5 Nordeste 0.2 -- -- 98
2021-02-04 19:00:00 4.4 0 Calma 8 Este 0.2 -- -- 98
2021-02-04 18:00:00 4.6 4 Nordeste 7 Nordeste 0.4 -- -- 98
2021-02-04 17:00:00 4.7 4 Norte 9 Este 2 -- -- 97
2021-02-04 16:00:00 4.5 3 Norte 6 Nordeste 2.6 -- -- 97
2021-02-04 15:00:00 4.7 0 Calma 10 Norte 3.6 -- -- 95
2021-02-04 14:00:00 4.6 7 Nordeste 22 Noroeste 1.8 -- -- 92
2021-02-04 13:00:00 6.1 10 Sudoeste 21 Sudoeste 1.4 -- -- 91
2021-02-04 12:00:00 6.6 5 Sudoeste 8 Sur 0.2 -- -- 96
2021-02-04 11:00:00 6.2 5 Nordeste 9 Norte 0 -- -- 99
2021-02-04 10:00:00 5.4 2 Nordeste 8 Nordeste 0 -- -- 100
2021-02-04 09:00:00 4.5 2 Nordeste 5 Este 0 -- -- 100
2021-02-04 08:00:00 4.1 2 Sudoeste 6 Este 0 -- -- 99
2021-02-04 07:00:00 3.7 4 Este 10 Sur 0 -- -- 98
2021-02-04 06:00:00 4.6 9 Sudoeste 13 Sudoeste 0 -- -- 97
2021-02-04 05:00:00 4.7 7 Sudoeste 14 Sudoeste 0 -- -- 97
2021-02-04 04:00:00 5.1 9 Sudoeste 21 Sudoeste 0 -- -- 96
2021-02-04 03:00:00 5.6 14 Sudoeste 28 Sudoeste 0 -- -- 96
2021-02-04 02:00:00 5.7 18 Sudoeste 28 Sudoeste 0 -- -- 95
2021-02-04 01:00:00 5.7 17 Sudoeste 26 Sudoeste 0 -- -- 96
2021-02-04 00:00:00 6.2 18 Sudoeste 26 Sudoeste 0 -- -- 95
2021-02-03 23:00:00 6.5 20 Sudoeste 28 Sudoeste 0 -- -- 95
2021-02-03 22:00:00 6.8 16 Sudoeste 27 Sudoeste 0 -- -- 93
2021-02-03 21:00:00 7.5 20 Sudoeste 30 Sudoeste 0 -- -- 92
2021-02-03 20:00:00 7.4 17 Sudoeste 27 Sudoeste 0 -- -- 91
2021-02-03 19:00:00 7.9 21 Sudoeste 31 Sudoeste 0 -- -- 88
2021-02-03 18:00:00 9.4 24 Sudoeste 40 Sudoeste 0 -- -- 80
2021-02-03 17:00:00 9.9 28 Sudoeste 44 Sudoeste 0 -- -- 72
2021-02-03 16:00:00 10.4 30 Sudoeste 46 Sudoeste 0 -- -- 66
2021-02-03 15:00:00 11.1 32 Sudoeste 54 Sudoeste 0 -- -- 63
2021-02-03 14:00:00 10.4 33 Oeste 53 Oeste 0 -- -- 65
2021-02-03 13:00:00 9.9 33 Oeste 55 Sudoeste 0 -- -- 68
2021-02-03 12:00:00 8.7 32 Oeste 53 Oeste 0 -- -- 79
2021-02-03 11:00:00 7.3 36 Sudoeste 57 Sudoeste 0 -- -- 87
2021-02-03 10:00:00 7.2 32 Sudoeste 47 Sudoeste 0 -- -- 90
2021-02-03 09:00:00 7.5 34 Sudoeste 53 Sudoeste 0 -- -- 95
2021-02-03 08:00:00 7.4 33 Sudoeste 58 Sudoeste 0.2 -- -- 98
2021-02-03 07:00:00 7.3 27 Sudoeste 59 Sudoeste 1 -- -- 99
2021-02-03 06:00:00 7.1 25 Sudoeste 40 Sudoeste 1 -- -- 100
2021-02-03 05:00:00 7 30 Sudoeste 50 Sudoeste 0.4 -- -- 99
2021-02-03 04:00:00 6.9 36 Sudoeste 54 Sudoeste 0.2 -- -- 99
2021-02-03 03:00:00 6.7 31 Sudoeste 55 Sudoeste 0.6 -- -- 98
2021-02-03 02:00:00 7 35 Sudoeste 53 Sur 0.2 -- -- 96
2021-02-03 01:00:00 7.5 35 Sudoeste 54 Sur 0 -- -- 92
2021-02-03 00:00:00 7.6 31 Sur 43 Sur 0 -- -- 91
2021-02-02 23:00:00 7.7 31 Sudoeste 46 Sur 0 -- -- 92
2021-02-02 22:00:00 7.5 27 Sudoeste 42 Sudoeste 0 -- -- 95
2021-02-02 21:00:00 7.5 29 Sudoeste 49 Sudoeste 0 -- -- 95
2021-02-02 20:00:00 7.8 30 Sudoeste 53 Sudoeste 0.8 -- -- 94
2021-02-02 19:00:00 8.3 28 Sudoeste 41 Sur 0.2 -- -- 91
2021-02-02 18:00:00 8.6 29 Sudoeste 39 Sudoeste 0 -- -- 89
2021-02-02 17:00:00 9.1 21 Sudoeste 33 Sudoeste 0 -- -- 91
2021-02-02 16:00:00 8.7 18 Sur 26 Sur 0 -- -- 93
2021-02-02 15:00:00 8.4 16 Sudoeste 42 Sudoeste 0.6 -- -- 94
2021-02-02 14:00:00 9.1 27 Sudoeste 46 Sudoeste 0 -- -- 85
2021-02-02 13:00:00 9.1 27 Sudoeste 41 Sudoeste 0 -- -- 85
2021-02-02 12:00:00 9.3 27 Sudoeste 40 Oeste 0 -- -- 85
2021-02-02 11:00:00 8.4 17 Sudoeste 34 Sudoeste 0 -- -- 92
2021-02-02 10:00:00 7.7 22 Sudoeste 35 Sudoeste 0 -- -- 94
2021-02-02 09:00:00 7.4 17 Sudoeste 31 Sudoeste 0 -- -- 95
2021-02-02 08:00:00 8.1 21 Sudoeste 36 Oeste 0 -- -- 93
2021-02-02 07:00:00 8.3 22 Oeste 38 Oeste 0 -- -- 92
2021-02-02 06:00:00 8.5 24 Oeste 39 Sudoeste 0 -- -- 92
2021-02-02 05:00:00 8.5 19 Sudoeste 36 Oeste 0 -- -- 95
2021-02-02 04:00:00 8.3 23 Oeste 37 Sudoeste 0 -- -- 98
2021-02-02 03:00:00 8.1 21 Sudoeste 43 Sudoeste 0 -- -- 98
2021-02-02 02:00:00 8 19 Sudoeste 36 Sudoeste 0 -- -- 96
2021-02-02 01:00:00 8 16 Sudoeste 37 Sudoeste 0 -- -- 94
2021-02-02 00:00:00 8 21 Sudoeste 34 Sudoeste 0 -- -- 92
2021-02-01 23:00:00 8.2 18 Sudoeste 33 Sudoeste 0 -- -- 89
2021-02-01 22:00:00 8.4 21 Sudoeste 33 Sudoeste 0 -- -- 87
2021-02-01 21:00:00 8.6 14 Sudoeste 24 Sudoeste 0 -- -- 86
2021-02-01 20:00:00 7.9 5 Noroeste 28 Oeste 0 -- -- 83
2021-02-01 19:00:00 9.4 20 Oeste 32 Oeste 0 -- -- 79
2021-02-01 18:00:00 12 18 Oeste 33 Oeste 0 -- -- 68
2021-02-01 17:00:00 11.1 22 Oeste 45 Oeste 0 -- -- 71
2021-02-01 16:00:00 11.5 26 Oeste 61 Oeste 0 -- -- 70
2021-02-01 15:00:00 11.7 26 Oeste 45 Oeste 0 -- -- 69
2021-02-01 14:00:00 13 31 Oeste 47 Oeste 0 -- -- 69
2021-02-01 13:00:00 11.3 31 Oeste 47 Oeste 0 -- -- 74
2021-02-01 12:00:00 11 34 Oeste 48 Oeste 0 -- -- 76
2021-02-01 11:00:00 9.2 32 Oeste 50 Oeste 0 -- -- 82
2021-02-01 10:00:00 7.4 14 Oeste 22 Oeste 0 -- -- 85
2021-02-01 09:00:00 5.6 5 Norte 29 Oeste 0 -- -- 86
2021-02-01 08:00:00 5.8 21 Oeste 29 Oeste 0 -- -- 84
2021-02-01 07:00:00 5.5 4 Nordeste 24 Oeste 0 -- -- 85
2021-02-01 06:00:00 6.6 13 Oeste 46 Oeste 0 -- -- 80
2021-02-01 05:00:00 6.7 32 Oeste 60 Oeste 0 -- -- 79
2021-02-01 04:00:00 6.6 38 Oeste 64 Oeste 0 -- -- 82
2021-02-01 03:00:00 6.4 41 Oeste 59 Oeste 0 -- -- 83
2021-02-01 02:00:00 6.8 41 Oeste 69 Oeste 0 -- -- 80
2021-02-01 01:00:00 7.3 42 Oeste 68 Oeste 0 -- -- 78
2021-02-01 00:00:00 7.8 48 Oeste 66 Oeste 0 -- -- 75
2021-01-31 23:00:00 8.5 41 Oeste 59 Oeste 0 -- -- 77
2021-01-31 22:00:00 8.6 34 Oeste 54 Oeste 0 -- -- 79
2021-01-31 21:00:00 8.9 31 Oeste 50 Sudoeste 0 -- -- 78
2021-01-31 20:00:00 9.8 36 Oeste 54 Oeste 0 -- -- 72
2021-01-31 19:00:00 10.4 32 Oeste 62 Oeste 0 -- -- 70
2021-01-31 18:00:00 11.8 40 Oeste 65 Oeste 0 -- -- 67
2021-01-31 17:00:00 11.5 38 Oeste 67 Oeste 0 -- -- 68
2021-01-31 16:00:00 12 35 Oeste 56 Oeste 0 -- -- 67
2021-01-31 15:00:00 13.2 31 Oeste 43 Oeste 0 -- -- 68
2021-01-31 14:00:00 11.4 19 Oeste 33 Oeste 0 -- -- 82
2021-01-31 13:00:00 9.4 18 Oeste 35 Sudoeste 0 -- -- 85
2021-01-31 12:00:00 7.9 20 Sudoeste 30 Sudoeste 0 -- -- 87
2021-01-31 11:00:00 5.8 15 Sudoeste 23 Sudoeste 0 -- -- 89
2021-01-31 10:00:00 5.1 0 Calma 17 Oeste 0 -- -- 91
2021-01-31 09:00:00 4.5 11 Oeste 23 Oeste 0 -- -- 90
2021-01-31 08:00:00 3.8 6 Sudoeste 25 Sudoeste 0 -- -- 89
2021-01-31 07:00:00 3.5 23 Oeste 34 Oeste 0 -- -- 86
2021-01-31 06:00:00 2.9 13 Oeste 32 Sudoeste 0 -- -- 90
2021-01-31 05:00:00 1.5 6 Sudeste 14 Noroeste 0 -- -- 93
2021-01-31 04:00:00 2.2 4 Norte 23 Oeste 0 -- -- 90
2021-01-31 03:00:00 2.6 15 Oeste 31 Oeste 0 -- -- 91
2021-01-31 02:00:00 2.5 22 Oeste 37 Oeste 0 -- -- 91
2021-01-31 01:00:00 2.5 23 Oeste 40 Oeste 0 -- -- 90
2021-01-31 00:00:00 2.9 28 Oeste 40 Oeste 0 -- -- 89
2021-01-30 23:00:00 3 25 Oeste 36 Oeste 0 -- -- 85
2021-01-30 22:00:00 3.1 25 Oeste 40 Oeste 0 -- -- 85
2021-01-30 21:00:00 3.4 27 Oeste 48 Oeste 0 -- -- 85
2021-01-30 20:00:00 3.9 26 Oeste 47 Oeste 0 -- -- 79
2021-01-30 19:00:00 4.4 31 Oeste 51 Oeste 0 -- -- 83
2021-01-30 18:00:00 5.9 28 Oeste 57 Oeste 0 -- -- 78
2021-01-30 17:00:00 6.8 40 Oeste 62 Oeste 0 -- -- 75
2021-01-30 16:00:00 7.2 33 Oeste 63 Oeste 0 -- -- 76
2021-01-30 15:00:00 6.2 44 Oeste 73 Oeste 0 -- -- 76
2021-01-30 14:00:00 7 39 Oeste 73 Oeste 0 -- -- 73
2021-01-30 13:00:00 7.4 39 Oeste 58 Oeste 0 -- -- 69
2021-01-30 12:00:00 7.1 40 Oeste 58 Oeste 0 -- -- 72
2021-01-30 11:00:00 6 27 Oeste 36 Oeste 0 -- -- 87
2021-01-30 10:00:00 5.3 20 Oeste 47 Oeste 0 -- -- 89
2021-01-30 09:00:00 5.2 12 Sudoeste 23 Sudoeste 0 -- -- 94
2021-01-30 08:00:00 5.2 14 Sudoeste 37 Oeste 0 -- -- 94
2021-01-30 07:00:00 5.4 22 Sudoeste 32 Oeste 0 -- -- 96
2021-01-30 06:00:00 5.8 23 Oeste 33 Oeste 0 -- -- 93
2021-01-30 05:00:00 6.7 20 Oeste 38 Sudoeste 0 -- -- 88
2021-01-30 04:00:00 6.4 19 Sudoeste 58 Oeste 0.2 -- -- 92
2021-01-30 03:00:00 8.1 31 Oeste 46 Oeste 4 -- -- 98
2021-01-30 02:00:00 8.3 29 Sudoeste 55 Sudoeste 0 -- -- 96
2021-01-30 01:00:00 8.3 32 Sudoeste 46 Sudoeste 0 -- -- 94
2021-01-30 00:00:00 8.6 29 Sudoeste 41 Sudoeste 0 -- -- 95
2021-01-29 23:00:00 9 21 Sudoeste 36 Sudoeste 0 -- -- 94
2021-01-29 22:00:00 9.4 12 Sudoeste 23 Sudoeste 0 -- -- 94
2021-01-29 21:00:00 9.6 10 Sudoeste 29 Sudoeste 0 -- -- 94
2021-01-29 20:00:00 9.8 21 Sudoeste 27 Sudoeste 0 -- -- 95
2021-01-29 19:00:00 10.6 16 Sudoeste 35 Sudoeste 0 -- -- 92
2021-01-29 18:00:00 11.5 21 Sudoeste 35 Sudoeste 0 -- -- 88
2021-01-29 17:00:00 11.8 20 Sudoeste 32 Sudoeste 0 -- -- 88
2021-01-29 16:00:00 12.2 17 Sudoeste 26 Sudoeste 0 -- -- 88
2021-01-29 15:00:00 12.4 10 Sudoeste 24 Sudoeste 0 -- -- 88
2021-01-29 14:00:00 10 6 Sudoeste 20 Sudoeste 0 -- -- 96
2021-01-29 13:00:00 8.9 6 Oeste 15 Oeste 0 -- -- 96
2021-01-29 12:00:00 8.4 11 Sudoeste 15 Sudoeste 0 -- -- 100
2021-01-29 11:00:00 7.8 11 Oeste 19 Oeste 0 -- -- 100
2021-01-29 10:00:00 7.3 8 Oeste 23 Sudoeste 0 -- -- 100
2021-01-29 09:00:00 7.1 13 Sudoeste 21 Sudoeste 0 -- -- 100
2021-01-29 08:00:00 7.4 4 Sur 15 Sur 0 -- -- 98
2021-01-29 07:00:00 7.7 5 Sur 14 Oeste 0 -- -- 97
2021-01-29 06:00:00 7.9 13 Sudoeste 28 Oeste 0 -- -- 96
2021-01-29 05:00:00 8.5 19 Oeste 33 Oeste 0 -- -- 96
2021-01-29 04:00:00 8.7 22 Oeste 34 Oeste 0 -- -- 96
2021-01-29 03:00:00 9.1 15 Oeste 34 Oeste 0 -- -- 96
2021-01-29 02:00:00 8.4 9 Sudoeste 21 Oeste 0 -- -- 96
2021-01-29 01:00:00 9.2 10 Oeste 21 Oeste 0 -- -- 97
2021-01-29 00:00:00 9.6 14 Sudoeste 30 Oeste 0 -- -- 95
2021-01-28 23:00:00 10.5 24 Oeste 33 Oeste 0 -- -- 94
2021-01-28 22:00:00 10.2 15 Oeste 32 Oeste 0 -- -- 93
2021-01-28 21:00:00 10.8 23 Oeste 34 Sudoeste 0 -- -- 90
2021-01-28 20:00:00 11.1 22 Sudoeste 34 Sudoeste 0 -- -- 90
2021-01-28 19:00:00 11.7 25 Sudoeste 32 Sudoeste 0 -- -- 89
2021-01-28 18:00:00 11.7 16 Sudoeste 22 Sudoeste 0 -- -- 94
2021-01-28 17:00:00 10.9 4 Sudoeste 9 Sudoeste 0 -- -- 94
2021-01-28 16:00:00 10.8 7 Sudoeste 12 Oeste 0 -- -- 92
2021-01-28 15:00:00 10.7 12 Oeste 23 Oeste 0 -- -- 91
2021-01-28 14:00:00 10.6 14 Sudoeste 21 Sudoeste 0 -- -- 92
2021-01-28 13:00:00 10.3 12 Oeste 24 Sudoeste 0 -- -- 94
2021-01-28 12:00:00 9.6 15 Sudoeste 21 Sudoeste 0 -- -- 100
2021-01-28 11:00:00 8.8 11 Oeste 20 Sudoeste 0 -- -- 100
2021-01-28 10:00:00 8.4 11 Sudoeste 18 Sudoeste 0 -- -- 100
2021-01-28 09:00:00 7.7 5 Oeste 12 Oeste 0 -- -- 100
2021-01-28 08:00:00 7.7 5 Oeste 13 Oeste 0 -- -- 100
2021-01-28 07:00:00 7.8 10 Oeste 18 Sudoeste 0 -- -- 100
2021-01-28 06:00:00 7.6 5 Noroeste 20 Sudoeste 0 -- -- 100
2021-01-28 05:00:00 7.5 8 Oeste 12 Sudoeste 0 -- -- 100
2021-01-28 04:00:00 7.9 6 Sudoeste 10 Oeste 0 -- -- 100
2021-01-28 03:00:00 8 9 Oeste 14 Sudoeste 0 -- -- 100
2021-01-28 02:00:00 8.1 10 Sudoeste 18 Sudoeste 0 -- -- 100
2021-01-28 01:00:00 8.3 12 Sudoeste 17 Oeste 0 -- -- 100
2021-01-28 00:00:00 8.7 11 Sudoeste 18 Sudoeste 0 -- -- 100